sensor_id;sensor_type;location;lat;lon;timestamp;pressure;altitude;pressure_sealevel;temperature;humidity
45071;BME280;30836;48.906;9.140;2023-12-20T00:00:03;986.52;;;13.92;46.22
45071;BME280;30836;48.906;9.140;2023-12-20T00:01:05;986.54;;;13.86;46.44
45071;BME280;30836;48.906;9.140;2023-12-20T00:02:09;986.54;;;13.82;46.49
45071;BME280;30836;48.906;9.140;2023-12-20T00:03:09;986.54;;;13.80;46.54
45071;BME280;30836;48.906;9.140;2023-12-20T00:04:13;986.54;;;13.78;46.51
45071;BME280;30836;48.906;9.140;2023-12-20T00:05:13;986.52;;;13.78;46.49
45071;BME280;30836;48.906;9.140;2023-12-20T00:06:19;986.50;;;13.85;46.38
45071;BME280;30836;48.906;9.140;2023-12-20T00:07:23;986.50;;;13.98;46.07
45071;BME280;30836;48.906;9.140;2023-12-20T00:08:24;986.50;;;14.13;45.78
45071;BME280;30836;48.906;9.140;2023-12-20T00:09:25;986.46;;;14.26;45.52
45071;BME280;30836;48.906;9.140;2023-12-20T00:10:28;986.46;;;14.35;45.41
45071;BME280;30836;48.906;9.140;2023-12-20T00:11:31;986.46;;;14.44;45.28
45071;BME280;30836;48.906;9.140;2023-12-20T00:12:32;986.46;;;14.52;45.07
45071;BME280;30836;48.906;9.140;2023-12-20T00:13:35;986.40;;;14.57;45.11
45071;BME280;30836;48.906;9.140;2023-12-20T00:14:44;986.36;;;14.59;45.10
45071;BME280;30836;48.906;9.140;2023-12-20T00:15:48;986.36;;;14.58;45.19
45071;BME280;30836;48.906;9.140;2023-12-20T00:16:51;986.36;;;14.55;45.28
45071;BME280;30836;48.906;9.140;2023-12-20T00:17:52;986.31;;;14.53;45.34
45071;BME280;30836;48.906;9.140;2023-12-20T00:18:56;986.25;;;14.54;45.40
45071;BME280;30836;48.906;9.140;2023-12-20T00:19:56;986.25;;;14.54;45.33
45071;BME280;30836;48.906;9.140;2023-12-20T00:20:57;986.29;;;14.53;45.38
45071;BME280;30836;48.906;9.140;2023-12-20T00:21:07;986.29;;;14.56;45.41
45071;BME280;30836;48.906;9.140;2023-12-20T00:22:10;986.33;;;14.54;45.51
45071;BME280;30836;48.906;9.140;2023-12-20T00:23:11;986.29;;;14.48;45.91
45071;BME280;30836;48.906;9.140;2023-12-20T00:24:15;986.29;;;14.39;46.12
45071;BME280;30836;48.906;9.140;2023-12-20T00:25:15;986.29;;;14.31;46.44
45071;BME280;30836;48.906;9.140;2023-12-20T00:26:16;986.27;;;14.23;46.63
45071;BME280;30836;48.906;9.140;2023-12-20T00:27:19;986.29;;;14.15;46.78
45071;BME280;30836;48.906;9.140;2023-12-20T00:28:23;986.25;;;14.09;46.99
45071;BME280;30836;48.906;9.140;2023-12-20T00:29:24;986.19;;;14.03;47.26
45071;BME280;30836;48.906;9.140;2023-12-20T00:30:27;986.19;;;14.00;47.36
45071;BME280;30836;48.906;9.140;2023-12-20T00:31:28;986.21;;;14.00;47.52
45071;BME280;30836;48.906;9.140;2023-12-20T00:32:29;986.19;;;13.99;47.54
45071;BME280;30836;48.906;9.140;2023-12-20T00:33:30;986.17;;;13.99;47.58
45071;BME280;30836;48.906;9.140;2023-12-20T00:34:38;986.15;;;13.99;47.52
45071;BME280;30836;48.906;9.140;2023-12-20T00:35:39;986.19;;;14.01;47.53
45071;BME280;30836;48.906;9.140;2023-12-20T00:36:42;986.19;;;14.06;47.48
45071;BME280;30836;48.906;9.140;2023-12-20T00:37:43;986.19;;;14.14;47.24
45071;BME280;30836;48.906;9.140;2023-12-20T00:38:44;986.15;;;14.24;47.03
45071;BME280;30836;48.906;9.140;2023-12-20T00:39:51;986.11;;;14.33;46.86
45071;BME280;30836;48.906;9.140;2023-12-20T00:40:54;986.07;;;14.42;46.84
45071;BME280;30836;48.906;9.140;2023-12-20T00:41:57;986.09;;;14.48;46.90
45071;BME280;30836;48.906;9.140;2023-12-20T00:43:03;986.11;;;14.53;46.71
45071;BME280;30836;48.906;9.140;2023-12-20T00:44:04;986.11;;;14.60;46.47
45071;BME280;30836;48.906;9.140;2023-12-20T00:45:05;986.13;;;14.66;46.40
45071;BME280;30836;48.906;9.140;2023-12-20T00:46:06;986.15;;;14.70;46.46
45071;BME280;30836;48.906;9.140;2023-12-20T00:47:06;986.13;;;14.71;46.54
45071;BME280;30836;48.906;9.140;2023-12-20T00:48:10;986.13;;;14.70;46.38
45071;BME280;30836;48.906;9.140;2023-12-20T00:49:11;986.13;;;14.72;46.31
45071;BME280;30836;48.906;9.140;2023-12-20T00:50:12;986.15;;;14.73;46.49
45071;BME280;30836;48.906;9.140;2023-12-20T00:50:22;986.17;;;14.73;46.49
45071;BME280;30836;48.906;9.140;2023-12-20T00:51:25;986.19;;;14.73;46.43
45071;BME280;30836;48.906;9.140;2023-12-20T00:52:30;986.19;;;14.69;46.69
45071;BME280;30836;48.906;9.140;2023-12-20T00:53:35;986.19;;;14.58;47.08
45071;BME280;30836;48.906;9.140;2023-12-20T00:54:36;986.19;;;14.45;47.36
45071;BME280;30836;48.906;9.140;2023-12-20T00:55:41;986.17;;;14.36;47.56
45071;BME280;30836;48.906;9.140;2023-12-20T00:56:42;986.15;;;14.28;47.79
45071;BME280;30836;48.906;9.140;2023-12-20T00:57:42;986.13;;;14.22;47.99
45071;BME280;30836;48.906;9.140;2023-12-20T00:58:43;986.15;;;14.18;48.09
45071;BME280;30836;48.906;9.140;2023-12-20T00:59:44;986.15;;;14.16;48.14
45071;BME280;30836;48.906;9.140;2023-12-20T01:00:44;986.17;;;14.15;48.28
45071;BME280;30836;48.906;9.140;2023-12-20T01:01:50;986.21;;;14.14;48.24
45071;BME280;30836;48.906;9.140;2023-12-20T01:02:53;986.21;;;14.12;48.50
45071;BME280;30836;48.906;9.140;2023-12-20T01:03:54;986.15;;;14.08;48.52
45071;BME280;30836;48.906;9.140;2023-12-20T01:04:54;986.09;;;14.06;48.63
45071;BME280;30836;48.906;9.140;2023-12-20T01:05:55;986.11;;;14.04;48.76
45071;BME280;30836;48.906;9.140;2023-12-20T01:07:05;986.13;;;14.04;48.73
45071;BME280;30836;48.906;9.140;2023-12-20T01:08:05;986.13;;;14.06;48.63
45071;BME280;30836;48.906;9.140;2023-12-20T01:09:06;986.15;;;14.08;48.64
45071;BME280;30836;48.906;9.140;2023-12-20T01:10:06;986.15;;;14.09;48.70
45071;BME280;30836;48.906;9.140;2023-12-20T01:11:11;986.19;;;14.11;48.72
45071;BME280;30836;48.906;9.140;2023-12-20T01:12:14;986.21;;;14.11;48.87
45071;BME280;30836;48.906;9.140;2023-12-20T01:13:17;986.21;;;14.11;48.77
45071;BME280;30836;48.906;9.140;2023-12-20T01:14:21;986.15;;;14.15;48.58
45071;BME280;30836;48.906;9.140;2023-12-20T01:15:22;986.17;;;14.22;48.33
45071;BME280;30836;48.906;9.140;2023-12-20T01:16:30;986.17;;;14.31;48.15
45071;BME280;30836;48.906;9.140;2023-12-20T01:17:31;986.15;;;14.38;48.13
45071;BME280;30836;48.906;9.140;2023-12-20T01:18:34;986.13;;;14.44;47.95
45071;BME280;30836;48.906;9.140;2023-12-20T01:19:40;986.17;;;14.49;48.06
45071;BME280;30836;48.906;9.140;2023-12-20T01:20:41;986.17;;;14.52;47.94
45071;BME280;30836;48.906;9.140;2023-12-20T01:21:42;986.15;;;14.57;47.86
45071;BME280;30836;48.906;9.140;2023-12-20T01:22:45;986.21;;;14.62;47.73
45071;BME280;30836;48.906;9.140;2023-12-20T01:23:45;986.23;;;14.68;47.61
45071;BME280;30836;48.906;9.140;2023-12-20T01:24:46;986.25;;;14.73;47.58
45071;BME280;30836;48.906;9.140;2023-12-20T01:25:46;986.25;;;14.76;47.54
45071;BME280;30836;48.906;9.140;2023-12-20T01:26:47;986.21;;;14.81;47.48
45071;BME280;30836;48.906;9.140;2023-12-20T01:27:47;986.23;;;14.85;47.41
45071;BME280;30836;48.906;9.140;2023-12-20T01:28:48;986.31;;;14.89;47.31
45071;BME280;30836;48.906;9.140;2023-12-20T01:29:48;986.31;;;14.91;47.30
45071;BME280;30836;48.906;9.140;2023-12-20T01:30:49;986.31;;;14.92;47.30
45071;BME280;30836;48.906;9.140;2023-12-20T01:31:49;986.34;;;14.92;47.31
45071;BME280;30836;48.906;9.140;2023-12-20T01:32:49;986.33;;;14.93;47.31
45071;BME280;30836;48.906;9.140;2023-12-20T01:33:50;986.34;;;14.95;47.26
45071;BME280;30836;48.906;9.140;2023-12-20T01:34:50;986.33;;;14.98;47.28
45071;BME280;30836;48.906;9.140;2023-12-20T01:35:51;986.34;;;14.98;47.31
45071;BME280;30836;48.906;9.140;2023-12-20T01:36:51;986.33;;;14.90;47.83
45071;BME280;30836;48.906;9.140;2023-12-20T01:37:51;986.33;;;14.78;47.91
45071;BME280;30836;48.906;9.140;2023-12-20T01:38:52;986.33;;;14.67;48.19
45071;BME280;30836;48.906;9.140;2023-12-20T01:39:52;986.33;;;14.62;48.01
45071;BME280;30836;48.906;9.140;2023-12-20T01:40:53;986.33;;;14.63;47.98
45071;BME280;30836;48.906;9.140;2023-12-20T01:41:53;986.34;;;14.63;47.97
45071;BME280;30836;48.906;9.140;2023-12-20T01:44:00;986.31;;;14.56;48.12
45071;BME280;30836;48.906;9.140;2023-12-20T01:45:00;986.31;;;14.55;48.20
45071;BME280;30836;48.906;9.140;2023-12-20T01:46:01;986.31;;;14.54;48.32
45071;BME280;30836;48.906;9.140;2023-12-20T01:47:01;986.31;;;14.52;48.22
45071;BME280;30836;48.906;9.140;2023-12-20T01:48:02;986.27;;;14.51;48.30
45071;BME280;30836;48.906;9.140;2023-12-20T01:49:05;986.29;;;14.52;48.28
45071;BME280;30836;48.906;9.140;2023-12-20T01:50:05;986.27;;;14.54;48.30
45071;BME280;30836;48.906;9.140;2023-12-20T01:51:06;986.25;;;14.55;48.44
45071;BME280;30836;48.906;9.140;2023-12-20T01:52:07;986.23;;;14.55;48.52
45071;BME280;30836;48.906;9.140;2023-12-20T01:52:18;986.25;;;14.51;48.52
45071;BME280;30836;48.906;9.140;2023-12-20T01:53:21;986.25;;;14.50;48.49
45071;BME280;30836;48.906;9.140;2023-12-20T01:54:24;986.23;;;14.43;48.86
45071;BME280;30836;48.906;9.140;2023-12-20T01:55:25;986.21;;;14.32;49.15
45071;BME280;30836;48.906;9.140;2023-12-20T01:56:27;986.25;;;14.24;49.34
45071;BME280;30836;48.906;9.140;2023-12-20T01:57:29;986.21;;;14.20;49.27
45071;BME280;30836;48.906;9.140;2023-12-20T01:58:29;986.23;;;14.17;49.48
45071;BME280;30836;48.906;9.140;2023-12-20T01:59:30;986.19;;;14.12;49.92
45071;BME280;30836;48.906;9.140;2023-12-20T02:00:30;986.19;;;14.05;50.13
45071;BME280;30836;48.906;9.140;2023-12-20T02:01:31;986.19;;;14.00;50.10
45071;BME280;30836;48.906;9.140;2023-12-20T02:02:32;986.19;;;14.00;50.08
45071;BME280;30836;48.906;9.140;2023-12-20T02:03:33;986.21;;;13.98;50.38
45071;BME280;30836;48.906;9.140;2023-12-20T02:04:35;986.19;;;13.93;50.65
45071;BME280;30836;48.906;9.140;2023-12-20T02:05:35;986.25;;;13.85;51.04
45071;BME280;30836;48.906;9.140;2023-12-20T02:06:36;986.21;;;13.80;51.00
45071;BME280;30836;48.906;9.140;2023-12-20T02:07:40;986.21;;;13.75;51.12
45071;BME280;30836;48.906;9.140;2023-12-20T02:08:40;986.19;;;13.66;51.43
45071;BME280;30836;48.906;9.140;2023-12-20T02:09:41;986.17;;;13.61;51.49
45071;BME280;30836;48.906;9.140;2023-12-20T02:10:41;986.19;;;13.60;51.41
45071;BME280;30836;48.906;9.140;2023-12-20T02:11:42;986.21;;;13.58;51.79
45071;BME280;30836;48.906;9.140;2023-12-20T02:12:43;986.21;;;13.54;51.64
45071;BME280;30836;48.906;9.140;2023-12-20T02:13:43;986.19;;;13.57;51.63
45071;BME280;30836;48.906;9.140;2023-12-20T02:14:44;986.21;;;13.56;51.88
45071;BME280;30836;48.906;9.140;2023-12-20T02:15:44;986.21;;;13.48;52.19
45071;BME280;30836;48.906;9.140;2023-12-20T02:16:45;986.17;;;13.39;52.31
45071;BME280;30836;48.906;9.140;2023-12-20T02:17:46;986.23;;;13.32;52.81
45071;BME280;30836;48.906;9.140;2023-12-20T02:18:47;986.23;;;13.19;53.10
45071;BME280;30836;48.906;9.140;2023-12-20T02:19:47;986.25;;;13.10;52.98
45071;BME280;30836;48.906;9.140;2023-12-20T02:20:48;986.27;;;13.04;53.48
45071;BME280;30836;48.906;9.140;2023-12-20T02:21:48;986.23;;;12.95;53.78
45071;BME280;30836;48.906;9.140;2023-12-20T02:22:49;986.25;;;12.87;53.99
45071;BME280;30836;48.906;9.140;2023-12-20T02:23:49;986.27;;;12.85;53.97
45071;BME280;30836;48.906;9.140;2023-12-20T02:24:50;986.27;;;12.81;54.10
45071;BME280;30836;48.906;9.140;2023-12-20T02:25:50;986.25;;;12.77;54.13
45071;BME280;30836;48.906;9.140;2023-12-20T02:26:50;986.27;;;12.75;54.03
45071;BME280;30836;48.906;9.140;2023-12-20T02:27:51;986.23;;;12.66;55.00
45071;BME280;30836;48.906;9.140;2023-12-20T02:28:52;986.21;;;12.55;54.62
45071;BME280;30836;48.906;9.140;2023-12-20T02:29:52;986.25;;;12.57;54.56
45071;BME280;30836;48.906;9.140;2023-12-20T02:30:53;986.25;;;12.55;54.91
45071;BME280;30836;48.906;9.140;2023-12-20T02:31:53;986.21;;;12.49;55.22
45071;BME280;30836;48.906;9.140;2023-12-20T02:32:54;986.25;;;12.48;54.78
45071;BME280;30836;48.906;9.140;2023-12-20T02:33:54;986.27;;;12.50;54.94
45071;BME280;30836;48.906;9.140;2023-12-20T02:34:55;986.23;;;12.46;55.08
45071;BME280;30836;48.906;9.140;2023-12-20T02:35:55;986.23;;;12.41;55.11
45071;BME280;30836;48.906;9.140;2023-12-20T02:36:56;986.25;;;12.40;55.21
45071;BME280;30836;48.906;9.140;2023-12-20T02:37:56;986.27;;;12.41;55.19
45071;BME280;30836;48.906;9.140;2023-12-20T02:38:57;986.25;;;12.41;55.06
45071;BME280;30836;48.906;9.140;2023-12-20T02:39:57;986.27;;;12.39;55.15
45071;BME280;30836;48.906;9.140;2023-12-20T02:40:57;986.25;;;12.30;55.42
45071;BME280;30836;48.906;9.140;2023-12-20T02:41:58;986.29;;;12.16;55.83
45071;BME280;30836;48.906;9.140;2023-12-20T02:42:58;986.23;;;12.05;56.08
45071;BME280;30836;48.906;9.140;2023-12-20T02:43:59;986.25;;;12.00;56.25
45071;BME280;30836;48.906;9.140;2023-12-20T02:45:00;986.23;;;11.93;56.26
45071;BME280;30836;48.906;9.140;2023-12-20T02:46:00;986.27;;;11.90;56.44
45071;BME280;30836;48.906;9.140;2023-12-20T02:47:01;986.25;;;11.91;56.10
45071;BME280;30836;48.906;9.140;2023-12-20T02:48:01;986.33;;;11.96;55.86
45071;BME280;30836;48.906;9.140;2023-12-20T02:49:02;986.27;;;11.93;56.32
45071;BME280;30836;48.906;9.140;2023-12-20T02:50:02;986.25;;;11.95;56.04
45071;BME280;30836;48.906;9.140;2023-12-20T02:51:03;986.33;;;12.05;55.64
45071;BME280;30836;48.906;9.140;2023-12-20T02:52:04;986.25;;;12.10;55.68
45071;BME280;30836;48.906;9.140;2023-12-20T02:53:05;986.25;;;12.10;55.69
45071;BME280;30836;48.906;9.140;2023-12-20T02:54:05;986.27;;;11.99;56.33
45071;BME280;30836;48.906;9.140;2023-12-20T02:55:06;986.29;;;11.76;56.98
45071;BME280;30836;48.906;9.140;2023-12-20T02:56:06;986.25;;;11.63;56.93
45071;BME280;30836;48.906;9.140;2023-12-20T02:57:07;986.27;;;11.63;57.00
45071;BME280;30836;48.906;9.140;2023-12-20T02:58:07;986.29;;;11.66;56.66
45071;BME280;30836;48.906;9.140;2023-12-20T02:59:07;986.27;;;11.76;56.48
45071;BME280;30836;48.906;9.140;2023-12-20T03:00:08;986.27;;;11.82;56.29
45071;BME280;30836;48.906;9.140;2023-12-20T03:01:09;986.29;;;11.81;56.42
45071;BME280;30836;48.906;9.140;2023-12-20T03:02:10;986.31;;;11.66;57.05
45071;BME280;30836;48.906;9.140;2023-12-20T03:03:10;986.27;;;11.48;57.44
45071;BME280;30836;48.906;9.140;2023-12-20T03:04:11;986.27;;;11.42;57.03
45071;BME280;30836;48.906;9.140;2023-12-20T03:05:12;986.33;;;11.37;57.40
45071;BME280;30836;48.906;9.140;2023-12-20T03:06:15;986.34;;;11.29;57.20
45071;BME280;30836;48.906;9.140;2023-12-20T03:07:19;986.33;;;11.23;57.53
45071;BME280;30836;48.906;9.140;2023-12-20T03:08:19;986.29;;;11.23;57.12
45071;BME280;30836;48.906;9.140;2023-12-20T03:09:20;986.29;;;11.36;56.82
45071;BME280;30836;48.906;9.140;2023-12-20T03:10:20;986.33;;;11.47;56.50
45071;BME280;30836;48.906;9.140;2023-12-20T03:11:21;986.33;;;11.53;56.44
45071;BME280;30836;48.906;9.140;2023-12-20T03:12:21;986.34;;;11.60;56.10
45071;BME280;30836;48.906;9.140;2023-12-20T03:13:21;986.36;;;11.49;56.79
45071;BME280;30836;48.906;9.140;2023-12-20T03:14:22;986.38;;;11.26;57.24
45071;BME280;30836;48.906;9.140;2023-12-20T03:15:22;986.34;;;11.21;57.16
45071;BME280;30836;48.906;9.140;2023-12-20T03:16:23;986.34;;;11.24;57.17
45071;BME280;30836;48.906;9.140;2023-12-20T03:17:24;986.34;;;11.30;56.78
45071;BME280;30836;48.906;9.140;2023-12-20T03:18:24;986.36;;;11.34;56.58
45071;BME280;30836;48.906;9.140;2023-12-20T03:19:24;986.42;;;11.40;56.63
45071;BME280;30836;48.906;9.140;2023-12-20T03:20:25;986.44;;;11.44;56.52
45071;BME280;30836;48.906;9.140;2023-12-20T03:21:25;986.40;;;11.47;56.28
45071;BME280;30836;48.906;9.140;2023-12-20T03:22:26;986.42;;;11.58;56.04
45071;BME280;30836;48.906;9.140;2023-12-20T03:23:26;986.46;;;11.66;55.67
45071;BME280;30836;48.906;9.140;2023-12-20T03:24:27;986.44;;;11.71;55.69
45071;BME280;30836;48.906;9.140;2023-12-20T03:25:27;986.46;;;11.69;55.82
45071;BME280;30836;48.906;9.140;2023-12-20T03:26:28;986.46;;;11.62;55.94
45071;BME280;30836;48.906;9.140;2023-12-20T03:27:28;986.46;;;11.59;55.97
45071;BME280;30836;48.906;9.140;2023-12-20T03:28:29;986.46;;;11.57;56.11
45071;BME280;30836;48.906;9.140;2023-12-20T03:29:29;986.48;;;11.56;55.87
45071;BME280;30836;48.906;9.140;2023-12-20T03:30:30;986.46;;;11.57;55.85
45071;BME280;30836;48.906;9.140;2023-12-20T03:31:30;986.44;;;11.59;55.97
45071;BME280;30836;48.906;9.140;2023-12-20T03:32:31;986.48;;;11.61;55.74
45071;BME280;30836;48.906;9.140;2023-12-20T03:33:31;986.52;;;11.59;56.17
45071;BME280;30836;48.906;9.140;2023-12-20T03:34:32;986.52;;;11.63;55.70
45071;BME280;30836;48.906;9.140;2023-12-20T03:35:32;986.48;;;11.66;55.81
45071;BME280;30836;48.906;9.140;2023-12-20T03:36:33;986.48;;;11.61;55.95
45071;BME280;30836;48.906;9.140;2023-12-20T03:37:33;986.46;;;11.65;55.87
45071;BME280;30836;48.906;9.140;2023-12-20T03:38:33;986.48;;;11.65;56.00
45071;BME280;30836;48.906;9.140;2023-12-20T03:39:34;986.46;;;11.61;56.08
45071;BME280;30836;48.906;9.140;2023-12-20T03:40:34;986.40;;;11.57;56.21
45071;BME280;30836;48.906;9.140;2023-12-20T03:40:44;986.44;;;11.49;56.19
45071;BME280;30836;48.906;9.140;2023-12-20T03:41:45;986.42;;;11.51;55.94
45071;BME280;30836;48.906;9.140;2023-12-20T03:42:45;986.44;;;11.55;56.10
45071;BME280;30836;48.906;9.140;2023-12-20T03:43:45;986.42;;;11.60;55.89
45071;BME280;30836;48.906;9.140;2023-12-20T03:44:46;986.48;;;11.66;55.71
45071;BME280;30836;48.906;9.140;2023-12-20T03:45:46;986.44;;;11.68;56.07
45071;BME280;30836;48.906;9.140;2023-12-20T03:46:47;986.50;;;11.61;56.29
45071;BME280;30836;48.906;9.140;2023-12-20T03:47:47;986.50;;;11.46;57.22
45071;BME280;30836;48.906;9.140;2023-12-20T03:48:48;986.50;;;11.25;57.23
45071;BME280;30836;48.906;9.140;2023-12-20T03:49:48;986.46;;;11.25;56.77
45071;BME280;30836;48.906;9.140;2023-12-20T03:50:48;986.50;;;11.32;56.86
45071;BME280;30836;48.906;9.140;2023-12-20T03:51:49;986.56;;;11.34;56.85
45071;BME280;30836;48.906;9.140;2023-12-20T03:52:49;986.54;;;11.24;57.59
45071;BME280;30836;48.906;9.140;2023-12-20T03:53:50;986.60;;;11.12;57.38
45071;BME280;30836;48.906;9.140;2023-12-20T03:54:50;986.52;;;11.13;57.34
45071;BME280;30836;48.906;9.140;2023-12-20T03:55:50;986.56;;;11.10;57.44
45071;BME280;30836;48.906;9.140;2023-12-20T03:56:51;986.58;;;11.05;57.49
45071;BME280;30836;48.906;9.140;2023-12-20T03:57:51;986.62;;;11.05;57.40
45071;BME280;30836;48.906;9.140;2023-12-20T03:58:52;986.62;;;11.13;57.21
45071;BME280;30836;48.906;9.140;2023-12-20T03:59:52;986.62;;;11.18;57.10
45071;BME280;30836;48.906;9.140;2023-12-20T04:00:52;986.60;;;11.23;56.88
45071;BME280;30836;48.906;9.140;2023-12-20T04:01:53;986.58;;;11.25;56.94
45071;BME280;30836;48.906;9.140;2023-12-20T04:02:53;986.60;;;11.28;56.90
45071;BME280;30836;48.906;9.140;2023-12-20T04:03:54;986.56;;;11.31;56.81
45071;BME280;30836;48.906;9.140;2023-12-20T04:04:54;986.56;;;11.35;56.58
45071;BME280;30836;48.906;9.140;2023-12-20T04:05:54;986.60;;;11.39;56.20
45071;BME280;30836;48.906;9.140;2023-12-20T04:06:55;986.54;;;11.38;56.63
45071;BME280;30836;48.906;9.140;2023-12-20T04:07:55;986.50;;;11.36;56.57
45071;BME280;30836;48.906;9.140;2023-12-20T04:08:56;986.46;;;11.36;56.56
45071;BME280;30836;48.906;9.140;2023-12-20T04:09:56;986.46;;;11.36;56.50
45071;BME280;30836;48.906;9.140;2023-12-20T04:10:57;986.50;;;11.35;56.54
45071;BME280;30836;48.906;9.140;2023-12-20T04:11:57;986.54;;;11.34;56.56
45071;BME280;30836;48.906;9.140;2023-12-20T04:12:57;986.60;;;11.29;56.38
45071;BME280;30836;48.906;9.140;2023-12-20T04:13:58;986.56;;;11.25;56.77
45071;BME280;30836;48.906;9.140;2023-12-20T04:14:58;986.56;;;11.23;56.60
45071;BME280;30836;48.906;9.140;2023-12-20T04:15:59;986.60;;;11.23;56.79
45071;BME280;30836;48.906;9.140;2023-12-20T04:16:59;986.56;;;11.17;56.85
45071;BME280;30836;48.906;9.140;2023-12-20T04:18:00;986.58;;;11.16;56.79
45071;BME280;30836;48.906;9.140;2023-12-20T04:19:00;986.60;;;11.16;56.80
45071;BME280;30836;48.906;9.140;2023-12-20T04:20:00;986.58;;;11.15;56.76
45071;BME280;30836;48.906;9.140;2023-12-20T04:21:01;986.58;;;11.19;56.87
45071;BME280;30836;48.906;9.140;2023-12-20T04:22:01;986.60;;;11.24;56.53
45071;BME280;30836;48.906;9.140;2023-12-20T04:23:02;986.58;;;11.32;56.48
45071;BME280;30836;48.906;9.140;2023-12-20T04:24:03;986.60;;;11.37;56.27
45071;BME280;30836;48.906;9.140;2023-12-20T04:25:03;986.64;;;11.41;56.35
45071;BME280;30836;48.906;9.140;2023-12-20T04:26:04;986.64;;;11.40;56.34
45071;BME280;30836;48.906;9.140;2023-12-20T04:27:04;986.68;;;11.33;56.69
45071;BME280;30836;48.906;9.140;2023-12-20T04:28:05;986.68;;;11.25;56.80
45071;BME280;30836;48.906;9.140;2023-12-20T04:29:05;986.68;;;11.21;56.78
45071;BME280;30836;48.906;9.140;2023-12-20T04:30:06;986.68;;;11.20;56.59
45071;BME280;30836;48.906;9.140;2023-12-20T04:31:07;986.70;;;11.28;56.54
45071;BME280;30836;48.906;9.140;2023-12-20T04:32:07;986.72;;;11.40;55.96
45071;BME280;30836;48.906;9.140;2023-12-20T04:33:08;986.84;;;11.48;56.15
45071;BME280;30836;48.906;9.140;2023-12-20T04:34:08;986.80;;;11.39;56.47
45071;BME280;30836;48.906;9.140;2023-12-20T04:35:08;986.78;;;11.38;56.25
45071;BME280;30836;48.906;9.140;2023-12-20T04:36:09;986.84;;;11.49;55.91
45071;BME280;30836;48.906;9.140;2023-12-20T04:37:09;986.85;;;11.52;56.33
45071;BME280;30836;48.906;9.140;2023-12-20T04:38:10;986.87;;;11.44;56.33
45071;BME280;30836;48.906;9.140;2023-12-20T04:39:11;986.89;;;11.46;56.04
45071;BME280;30836;48.906;9.140;2023-12-20T04:40:11;986.84;;;11.57;55.61
45071;BME280;30836;48.906;9.140;2023-12-20T04:41:12;986.80;;;11.67;55.34
45071;BME280;30836;48.906;9.140;2023-12-20T04:42:12;986.80;;;11.67;55.55
45071;BME280;30836;48.906;9.140;2023-12-20T04:43:13;986.82;;;11.66;55.56
45071;BME280;30836;48.906;9.140;2023-12-20T04:44:13;986.80;;;11.63;55.72
45071;BME280;30836;48.906;9.140;2023-12-20T04:45:14;986.91;;;11.49;56.24
45071;BME280;30836;48.906;9.140;2023-12-20T04:46:14;986.91;;;11.39;56.59
45071;BME280;30836;48.906;9.140;2023-12-20T04:47:15;986.93;;;11.31;56.61
45071;BME280;30836;48.906;9.140;2023-12-20T04:48:15;986.91;;;11.26;56.78
45071;BME280;30836;48.906;9.140;2023-12-20T04:49:15;986.87;;;11.24;56.69
45071;BME280;30836;48.906;9.140;2023-12-20T04:50:16;986.91;;;11.27;56.70
45071;BME280;30836;48.906;9.140;2023-12-20T04:51:16;986.95;;;11.24;56.87
45071;BME280;30836;48.906;9.140;2023-12-20T04:52:17;986.91;;;11.21;56.92
45071;BME280;30836;48.906;9.140;2023-12-20T04:53:17;986.93;;;11.30;56.31
45071;BME280;30836;48.906;9.140;2023-12-20T04:54:18;986.91;;;11.40;56.42
45071;BME280;30836;48.906;9.140;2023-12-20T04:55:18;986.97;;;11.42;56.50
45071;BME280;30836;48.906;9.140;2023-12-20T04:56:19;986.95;;;11.45;56.41
45071;BME280;30836;48.906;9.140;2023-12-20T04:57:19;986.99;;;11.41;56.49
45071;BME280;30836;48.906;9.140;2023-12-20T04:58:19;987.01;;;11.40;56.43
45071;BME280;30836;48.906;9.140;2023-12-20T04:59:20;986.99;;;11.45;56.18
45071;BME280;30836;48.906;9.140;2023-12-20T05:00:20;986.97;;;11.61;55.61
45071;BME280;30836;48.906;9.140;2023-12-20T05:01:21;987.01;;;11.77;55.19
45071;BME280;30836;48.906;9.140;2023-12-20T05:02:21;986.99;;;11.89;54.97
45071;BME280;30836;48.906;9.140;2023-12-20T05:03:22;986.99;;;11.97;54.93
45071;BME280;30836;48.906;9.140;2023-12-20T05:04:22;986.97;;;12.00;54.94
45071;BME280;30836;48.906;9.140;2023-12-20T05:05:22;987.01;;;12.02;54.92
45071;BME280;30836;48.906;9.140;2023-12-20T05:06:23;987.03;;;12.00;55.18
45071;BME280;30836;48.906;9.140;2023-12-20T05:07:23;987.01;;;11.97;55.05
45071;BME280;30836;48.906;9.140;2023-12-20T05:08:24;987.03;;;11.89;55.62
45071;BME280;30836;48.906;9.140;2023-12-20T05:09:24;986.99;;;11.79;55.54
45071;BME280;30836;48.906;9.140;2023-12-20T05:10:24;987.03;;;11.68;56.48
45071;BME280;30836;48.906;9.140;2023-12-20T05:11:25;987.05;;;11.55;56.60
45071;BME280;30836;48.906;9.140;2023-12-20T05:12:25;987.13;;;11.55;56.57
45071;BME280;30836;48.906;9.140;2023-12-20T05:13:26;987.15;;;11.57;56.26
45071;BME280;30836;48.906;9.140;2023-12-20T05:14:26;987.13;;;11.58;56.43
45071;BME280;30836;48.906;9.140;2023-12-20T05:15:27;987.15;;;11.58;56.53
45071;BME280;30836;48.906;9.140;2023-12-20T05:16:27;987.15;;;11.63;56.20
45071;BME280;30836;48.906;9.140;2023-12-20T05:17:27;987.11;;;11.80;55.55
45071;BME280;30836;48.906;9.140;2023-12-20T05:18:28;987.09;;;11.92;55.48
45071;BME280;30836;48.906;9.140;2023-12-20T05:19:28;987.11;;;11.94;55.73
45071;BME280;30836;48.906;9.140;2023-12-20T05:20:29;987.13;;;11.95;55.74
45071;BME280;30836;48.906;9.140;2023-12-20T05:21:29;987.17;;;11.92;56.16
45071;BME280;30836;48.906;9.140;2023-12-20T05:22:29;987.19;;;11.82;56.33
45071;BME280;30836;48.906;9.140;2023-12-20T05:23:30;987.27;;;11.77;56.72
45071;BME280;30836;48.906;9.140;2023-12-20T05:24:30;987.27;;;11.74;56.60
45071;BME280;30836;48.906;9.140;2023-12-20T05:25:31;987.31;;;11.73;56.84
45071;BME280;30836;48.906;9.140;2023-12-20T05:26:31;987.35;;;11.69;57.11
45071;BME280;30836;48.906;9.140;2023-12-20T05:27:32;987.33;;;11.64;57.24
45071;BME280;30836;48.906;9.140;2023-12-20T05:28:32;987.31;;;11.61;57.39
45071;BME280;30836;48.906;9.140;2023-12-20T05:29:33;987.37;;;11.69;56.82